sensor_id;sensor_type;location;lat;lon;timestamp;temperature;humidity
10352;DHT22;5222;49.324;8.420;2022-09-09T00:00:17;21.50;99.10
10352;DHT22;5222;49.324;8.420;2022-09-09T00:02:49;21.50;99.10
10352;DHT22;5222;49.324;8.420;2022-09-09T00:05:26;21.40;99.10
10352;DHT22;5222;49.324;8.420;2022-09-09T00:07:58;21.40;99.10
10352;DHT22;5222;49.324;8.420;2022-09-09T00:10:29;21.40;99.10
10352;DHT22;5222;49.324;8.420;2022-09-09T00:13:02;21.40;99.10
10352;DHT22;5222;49.324;8.420;2022-09-09T00:15:38;21.30;99.10
10352;DHT22;5222;49.324;8.420;2022-09-09T00:18:12;21.40;99.10
10352;DHT22;5222;49.324;8.420;2022-09-09T00:20:45;21.40;99.10
10352;DHT22;5222;49.324;8.420;2022-09-09T00:23:19;21.40;99.10
10352;DHT22;5222;49.324;8.420;2022-09-09T00:25:54;21.50;99.10
10352;DHT22;5222;49.324;8.420;2022-09-09T00:28:27;21.50;99.10
10352;DHT22;5222;49.324;8.420;2022-09-09T00:30:55;21.50;99.10
10352;DHT22;5222;49.324;8.420;2022-09-09T00:33:23;21.50;99.10
10352;DHT22;5222;49.324;8.420;2022-09-09T00:35:53;21.40;99.10
10352;DHT22;5222;49.324;8.420;2022-09-09T00:38:24;21.50;99.10
10352;DHT22;5222;49.324;8.420;2022-09-09T00:40:58;21.60;99.10
10352;DHT22;5222;49.324;8.420;2022-09-09T00:43:29;21.50;99.10
10352;DHT22;5222;49.324;8.420;2022-09-09T00:46:19;21.60;99.10
10352;DHT22;5222;49.324;8.420;2022-09-09T00:48:54;21.50;99.10
10352;DHT22;5222;49.324;8.420;2022-09-09T00:51:31;21.50;99.10
10352;DHT22;5222;49.324;8.420;2022-09-09T00:54:21;21.50;99.10
10352;DHT22;5222;49.324;8.420;2022-09-09T00:57:03;21.40;99.10
10352;DHT22;5222;49.324;8.420;2022-09-09T00:59:43;21.30;99.10
10352;DHT22;5222;49.324;8.420;2022-09-09T01:02:19;21.30;99.10
10352;DHT22;5222;49.324;8.420;2022-09-09T01:04:48;21.30;99.10
10352;DHT22;5222;49.324;8.420;2022-09-09T01:07:17;21.20;99.10
10352;DHT22;5222;49.324;8.420;2022-09-09T01:09:54;21.10;99.10
10352;DHT22;5222;49.324;8.420;2022-09-09T01:12:32;21.10;99.10
10352;DHT22;5222;49.324;8.420;2022-09-09T01:15:08;21.10;99.10
10352;DHT22;5222;49.324;8.420;2022-09-09T01:17:45;21.10;99.10
10352;DHT22;5222;49.324;8.420;2022-09-09T01:20:15;21.20;99.10
10352;DHT22;5222;49.324;8.420;2022-09-09T01:22:51;21.20;99.10
10352;DHT22;5222;49.324;8.420;2022-09-09T01:25:27;21.20;99.10
10352;DHT22;5222;49.324;8.420;2022-09-09T01:27:58;21.20;99.10
10352;DHT22;5222;49.324;8.420;2022-09-09T01:30:26;21.20;99.10
10352;DHT22;5222;49.324;8.420;2022-09-09T01:32:55;21.20;99.10
10352;DHT22;5222;49.324;8.420;2022-09-09T01:35:32;21.30;99.10
10352;DHT22;5222;49.324;8.420;2022-09-09T01:38:01;21.30;99.10
10352;DHT22;5222;49.324;8.420;2022-09-09T01:40:28;21.40;99.10
10352;DHT22;5222;49.324;8.420;2022-09-09T01:42:56;21.40;99.10
10352;DHT22;5222;49.324;8.420;2022-09-09T01:45:24;21.40;99.10
10352;DHT22;5222;49.324;8.420;2022-09-09T01:47:52;21.40;99.10
10352;DHT22;5222;49.324;8.420;2022-09-09T01:50:20;21.30;99.10
10352;DHT22;5222;49.324;8.420;2022-09-09T01:52:49;21.20;99.10
10352;DHT22;5222;49.324;8.420;2022-09-09T01:55:16;21.20;99.10
10352;DHT22;5222;49.324;8.420;2022-09-09T01:57:52;21.20;99.10
10352;DHT22;5222;49.324;8.420;2022-09-09T02:00:24;21.20;99.10
10352;DHT22;5222;49.324;8.420;2022-09-09T02:02:56;21.20;99.10
10352;DHT22;5222;49.324;8.420;2022-09-09T02:05:31;21.20;99.10
10352;DHT22;5222;49.324;8.420;2022-09-09T02:08:03;21.10;99.10
10352;DHT22;5222;49.324;8.420;2022-09-09T02:10:36;20.90;99.10
10352;DHT22;5222;49.324;8.420;2022-09-09T02:13:08;20.90;99.10
10352;DHT22;5222;49.324;8.420;2022-09-09T02:15:42;20.90;99.10
10352;DHT22;5222;49.324;8.420;2022-09-09T02:18:12;20.90;99.10
10352;DHT22;5222;49.324;8.420;2022-09-09T02:20:42;20.80;99.10
10352;DHT22;5222;49.324;8.420;2022-09-09T02:23:11;20.80;99.10
10352;DHT22;5222;49.324;8.420;2022-09-09T02:25:40;20.80;99.10
10352;DHT22;5222;49.324;8.420;2022-09-09T02:28:09;20.80;99.10
10352;DHT22;5222;49.324;8.420;2022-09-09T02:30:40;20.80;99.10
10352;DHT22;5222;49.324;8.420;2022-09-09T02:33:08;20.80;99.10
10352;DHT22;5222;49.324;8.420;2022-09-09T02:35:38;20.80;99.10
10352;DHT22;5222;49.324;8.420;2022-09-09T02:38:09;20.70;99.10
10352;DHT22;5222;49.324;8.420;2022-09-09T02:40:36;20.70;99.10
10352;DHT22;5222;49.324;8.420;2022-09-09T02:43:03;20.70;99.10
10352;DHT22;5222;49.324;8.420;2022-09-09T02:45:36;20.60;99.10
10352;DHT22;5222;49.324;8.420;2022-09-09T02:48:14;20.60;99.10
10352;DHT22;5222;49.324;8.420;2022-09-09T02:50:48;20.60;99.10
10352;DHT22;5222;49.324;8.420;2022-09-09T02:53:22;20.50;99.10
10352;DHT22;5222;49.324;8.420;2022-09-09T02:55:55;20.50;99.10
10352;DHT22;5222;49.324;8.420;2022-09-09T02:58:25;20.50;99.10
10352;DHT22;5222;49.324;8.420;2022-09-09T03:00:52;20.40;99.10
10352;DHT22;5222;49.324;8.420;2022-09-09T03:03:20;20.30;99.10
10352;DHT22;5222;49.324;8.420;2022-09-09T03:05:47;20.30;99.10
10352;DHT22;5222;49.324;8.420;2022-09-09T03:08:15;20.30;99.10
10352;DHT22;5222;49.324;8.420;2022-09-09T03:10:42;20.10;99.10
10352;DHT22;5222;49.324;8.420;2022-09-09T03:13:09;20.20;99.10
10352;DHT22;5222;49.324;8.420;2022-09-09T03:15:38;20.30;99.10
10352;DHT22;5222;49.324;8.420;2022-09-09T03:18:05;20.20;99.10
10352;DHT22;5222;49.324;8.420;2022-09-09T03:20:33;20.20;99.10
10352;DHT22;5222;49.324;8.420;2022-09-09T03:23:00;20.30;99.10
10352;DHT22;5222;49.324;8.420;2022-09-09T03:25:28;20.30;99.10
10352;DHT22;5222;49.324;8.420;2022-09-09T03:27:55;20.30;99.10
10352;DHT22;5222;49.324;8.420;2022-09-09T03:30:22;20.30;99.10
10352;DHT22;5222;49.324;8.420;2022-09-09T03:32:49;20.20;99.10
10352;DHT22;5222;49.324;8.420;2022-09-09T03:35:16;20.10;99.10
10352;DHT22;5222;49.324;8.420;2022-09-09T03:37:44;20.10;99.10
10352;DHT22;5222;49.324;8.420;2022-09-09T03:40:11;20.20;99.10
10352;DHT22;5222;49.324;8.420;2022-09-09T03:42:39;20.20;99.10
10352;DHT22;5222;49.324;8.420;2022-09-09T03:45:08;20.20;99.10
10352;DHT22;5222;49.324;8.420;2022-09-09T03:47:36;20.10;99.10
10352;DHT22;5222;49.324;8.420;2022-09-09T03:50:04;20.10;99.10
10352;DHT22;5222;49.324;8.420;2022-09-09T03:52:34;20.10;99.10
10352;DHT22;5222;49.324;8.420;2022-09-09T03:55:03;20.10;99.10
10352;DHT22;5222;49.324;8.420;2022-09-09T03:57:31;20.10;99.10
10352;DHT22;5222;49.324;8.420;2022-09-09T04:00:01;20.10;99.10
10352;DHT22;5222;49.324;8.420;2022-09-09T04:02:28;20.20;99.10
10352;DHT22;5222;49.324;8.420;2022-09-09T04:04:55;20.30;99.10
10352;DHT22;5222;49.324;8.420;2022-09-09T04:07:21;20.30;99.10
10352;DHT22;5222;49.324;8.420;2022-09-09T04:09:48;20.50;99.10
10352;DHT22;5222;49.324;8.420;2022-09-09T04:12:16;20.50;99.10
10352;DHT22;5222;49.324;8.420;2022-09-09T04:14:43;20.50;99.10
10352;DHT22;5222;49.324;8.420;2022-09-09T04:17:10;20.40;99.10
10352;DHT22;5222;49.324;8.420;2022-09-09T04:19:36;20.40;99.10
10352;DHT22;5222;49.324;8.420;2022-09-09T04:22:03;20.30;99.10
10352;DHT22;5222;49.324;8.420;2022-09-09T04:24:30;20.40;99.10
10352;DHT22;5222;49.324;8.420;2022-09-09T04:26:56;20.40;99.10
10352;DHT22;5222;49.324;8.420;2022-09-09T04:29:24;20.30;99.10
10352;DHT22;5222;49.324;8.420;2022-09-09T04:31:51;20.30;99.10
10352;DHT22;5222;49.324;8.420;2022-09-09T04:34:18;20.30;99.10
10352;DHT22;5222;49.324;8.420;2022-09-09T04:36:45;20.30;99.10
10352;DHT22;5222;49.324;8.420;2022-09-09T04:39:11;20.30;99.10
10352;DHT22;5222;49.324;8.420;2022-09-09T04:41:38;20.20;99.10
10352;DHT22;5222;49.324;8.420;2022-09-09T04:44:05;20.30;99.10
10352;DHT22;5222;49.324;8.420;2022-09-09T04:46:33;20.30;99.10
10352;DHT22;5222;49.324;8.420;2022-09-09T04:49:00;20.30;99.10
10352;DHT22;5222;49.324;8.420;2022-09-09T04:51:27;20.20;99.10
10352;DHT22;5222;49.324;8.420;2022-09-09T04:53:56;20.20;99.10
10352;DHT22;5222;49.324;8.420;2022-09-09T04:56:23;20.20;99.10
10352;DHT22;5222;49.324;8.420;2022-09-09T04:58:52;20.20;99.10
10352;DHT22;5222;49.324;8.420;2022-09-09T05:01:20;20.30;99.10
10352;DHT22;5222;49.324;8.420;2022-09-09T05:03:48;20.30;99.10
10352;DHT22;5222;49.324;8.420;2022-09-09T05:06:17;20.30;99.10
10352;DHT22;5222;49.324;8.420;2022-09-09T05:08:44;20.40;99.10
10352;DHT22;5222;49.324;8.420;2022-09-09T05:11:15;20.30;99.10
10352;DHT22;5222;49.324;8.420;2022-09-09T05:13:43;20.30;99.10
10352;DHT22;5222;49.324;8.420;2022-09-09T05:16:10;20.40;99.10
10352;DHT22;5222;49.324;8.420;2022-09-09T05:18:37;20.40;99.10
10352;DHT22;5222;49.324;8.420;2022-09-09T05:21:05;20.40;99.10
10352;DHT22;5222;49.324;8.420;2022-09-09T05:23:32;20.30;99.10
10352;DHT22;5222;49.324;8.420;2022-09-09T05:25:59;20.30;99.10
10352;DHT22;5222;49.324;8.420;2022-09-09T05:28:27;20.40;99.10
10352;DHT22;5222;49.324;8.420;2022-09-09T05:30:58;20.40;99.10
10352;DHT22;5222;49.324;8.420;2022-09-09T05:33:26;20.50;99.10
10352;DHT22;5222;49.324;8.420;2022-09-09T05:35:59;20.50;99.10
10352;DHT22;5222;49.324;8.420;2022-09-09T05:38:28;20.70;99.10
10352;DHT22;5222;49.324;8.420;2022-09-09T05:40:55;20.80;99.10
10352;DHT22;5222;49.324;8.420;2022-09-09T05:43:23;20.70;99.10
10352;DHT22;5222;49.324;8.420;2022-09-09T05:46:00;20.70;99.10
10352;DHT22;5222;49.324;8.420;2022-09-09T05:48:28;20.70;99.10
10352;DHT22;5222;49.324;8.420;2022-09-09T05:50:56;20.60;99.10
10352;DHT22;5222;49.324;8.420;2022-09-09T05:53:23;20.60;99.10
10352;DHT22;5222;49.324;8.420;2022-09-09T05:55:58;20.60;99.10
10352;DHT22;5222;49.324;8.420;2022-09-09T05:58:25;20.60;99.10
10352;DHT22;5222;49.324;8.420;2022-09-09T06:00:51;20.70;99.10
10352;DHT22;5222;49.324;8.420;2022-09-09T06:03:19;20.80;99.10
10352;DHT22;5222;49.324;8.420;2022-09-09T06:05:57;20.70;99.10
10352;DHT22;5222;49.324;8.420;2022-09-09T06:08:23;20.90;99.10
10352;DHT22;5222;49.324;8.420;2022-09-09T06:10:52;20.90;99.10
10352;DHT22;5222;49.324;8.420;2022-09-09T06:13:19;21.00;99.10
10352;DHT22;5222;49.324;8.420;2022-09-09T06:15:49;21.00;99.10
10352;DHT22;5222;49.324;8.420;2022-09-09T06:18:17;21.10;99.10
10352;DHT22;5222;49.324;8.420;2022-09-09T06:20:53;21.10;99.10
10352;DHT22;5222;49.324;8.420;2022-09-09T06:23:20;21.10;99.10
10352;DHT22;5222;49.324;8.420;2022-09-09T06:25:47;21.10;99.10
10352;DHT22;5222;49.324;8.420;2022-09-09T06:28:15;21.00;99.10
10352;DHT22;5222;49.324;8.420;2022-09-09T06:30:43;21.00;99.10
10352;DHT22;5222;49.324;8.420;2022-09-09T06:33:10;21.00;99.10
10352;DHT22;5222;49.324;8.420;2022-09-09T06:35:37;21.20;99.10
10352;DHT22;5222;49.324;8.420;2022-09-09T06:38:03;21.30;99.10
10352;DHT22;5222;49.324;8.420;2022-09-09T06:40:31;21.40;99.10
10352;DHT22;5222;49.324;8.420;2022-09-09T06:42:59;21.40;99.10
10352;DHT22;5222;49.324;8.420;2022-09-09T06:45:28;21.30;99.10
10352;DHT22;5222;49.324;8.420;2022-09-09T06:47:55;21.30;99.10
10352;DHT22;5222;49.324;8.420;2022-09-09T06:50:23;21.40;99.10
10352;DHT22;5222;49.324;8.420;2022-09-09T06:52:49;21.50;99.10
10352;DHT22;5222;49.324;8.420;2022-09-09T06:55:17;21.60;99.10
10352;DHT22;5222;49.324;8.420;2022-09-09T06:57:44;21.70;99.10
10352;DHT22;5222;49.324;8.420;2022-09-09T07:00:12;21.80;99.10
10352;DHT22;5222;49.324;8.420;2022-09-09T07:02:40;22.20;99.10
10352;DHT22;5222;49.324;8.420;2022-09-09T07:05:08;22.80;99.10
10352;DHT22;5222;49.324;8.420;2022-09-09T07:07:35;23.60;99.10
10352;DHT22;5222;49.324;8.420;2022-09-09T07:10:02;24.50;96.80
10352;DHT22;5222;49.324;8.420;2022-09-09T07:12:30;24.90;95.20
10352;DHT22;5222;49.324;8.420;2022-09-09T07:14:56;25.30;94.50
10352;DHT22;5222;49.324;8.420;2022-09-09T07:17:23;25.80;92.60
10352;DHT22;5222;49.324;8.420;2022-09-09T07:19:51;26.10;92.10
10352;DHT22;5222;49.324;8.420;2022-09-09T07:22:18;26.50;90.70
10352;DHT22;5222;49.324;8.420;2022-09-09T07:24:45;26.30;90.10
10352;DHT22;5222;49.324;8.420;2022-09-09T07:27:12;26.40;91.00
10352;DHT22;5222;49.324;8.420;2022-09-09T07:29:38;26.30;90.80
10352;DHT22;5222;49.324;8.420;2022-09-09T07:32:05;26.10;91.40
10352;DHT22;5222;49.324;8.420;2022-09-09T07:34:32;26.00;91.40
10352;DHT22;5222;49.324;8.420;2022-09-09T07:37:00;25.70;91.90
10352;DHT22;5222;49.324;8.420;2022-09-09T07:39:27;25.30;92.40
10352;DHT22;5222;49.324;8.420;2022-09-09T07:41:54;25.10;93.30
10352;DHT22;5222;49.324;8.420;2022-09-09T07:44:22;24.90;93.60
10352;DHT22;5222;49.324;8.420;2022-09-09T07:46:50;24.80;93.80
10352;DHT22;5222;49.324;8.420;2022-09-09T07:49:17;24.90;94.20
10352;DHT22;5222;49.324;8.420;2022-09-09T07:51:45;25.00;93.70
10352;DHT22;5222;49.324;8.420;2022-09-09T07:54:16;25.20;93.40
10352;DHT22;5222;49.324;8.420;2022-09-09T07:56:45;25.90;91.90
10352;DHT22;5222;49.324;8.420;2022-09-09T07:59:12;26.70;90.20
10352;DHT22;5222;49.324;8.420;2022-09-09T08:01:42;26.90;88.90
10352;DHT22;5222;49.324;8.420;2022-09-09T08:04:12;26.20;90.60
10352;DHT22;5222;49.324;8.420;2022-09-09T08:06:42;26.10;91.10
10352;DHT22;5222;49.324;8.420;2022-09-09T08:09:10;26.60;90.40
10352;DHT22;5222;49.324;8.420;2022-09-09T08:11:39;26.90;89.30
10352;DHT22;5222;49.324;8.420;2022-09-09T08:14:07;26.70;89.70
10352;DHT22;5222;49.324;8.420;2022-09-09T08:16:36;26.30;90.30
10352;DHT22;5222;49.324;8.420;2022-09-09T08:19:04;25.90;91.90
10352;DHT22;5222;49.324;8.420;2022-09-09T08:21:33;25.50;93.40
10352;DHT22;5222;49.324;8.420;2022-09-09T08:24:03;25.00;94.30
10352;DHT22;5222;49.324;8.420;2022-09-09T08:26:32;24.90;94.70
10352;DHT22;5222;49.324;8.420;2022-09-09T08:29:02;24.70;94.80
10352;DHT22;5222;49.324;8.420;2022-09-09T08:31:31;24.60;94.90
10352;DHT22;5222;49.324;8.420;2022-09-09T08:34:00;24.50;95.20
10352;DHT22;5222;49.324;8.420;2022-09-09T08:36:28;24.30;95.60
10352;DHT22;5222;49.324;8.420;2022-09-09T08:38:56;24.50;95.10
10352;DHT22;5222;49.324;8.420;2022-09-09T08:41:49;24.60;95.20
10352;DHT22;5222;49.324;8.420;2022-09-09T08:44:30;24.90;94.90
10352;DHT22;5222;49.324;8.420;2022-09-09T08:47:06;25.20;94.20
10352;DHT22;5222;49.324;8.420;2022-09-09T08:50:02;25.20;94.40
10352;DHT22;5222;49.324;8.420;2022-09-09T08:52:37;25.60;93.60
10352;DHT22;5222;49.324;8.420;2022-09-09T08:55:14;26.10;92.10
10352;DHT22;5222;49.324;8.420;2022-09-09T08:57:44;26.50;91.00
10352;DHT22;5222;49.324;8.420;2022-09-09T09:00:13;27.20;89.60
10352;DHT22;5222;49.324;8.420;2022-09-09T09:02:46;27.20;88.70
10352;DHT22;5222;49.324;8.420;2022-09-09T09:05:21;27.20;88.10
10352;DHT22;5222;49.324;8.420;2022-09-09T09:07:59;27.20;88.00
10352;DHT22;5222;49.324;8.420;2022-09-09T09:10:39;27.20;88.30
10352;DHT22;5222;49.324;8.420;2022-09-09T09:13:14;27.60;87.80
10352;DHT22;5222;49.324;8.420;2022-09-09T09:15:48;27.90;87.00
10352;DHT22;5222;49.324;8.420;2022-09-09T09:18:17;28.10;86.50
10352;DHT22;5222;49.324;8.420;2022-09-09T09:20:50;28.10;86.20
10352;DHT22;5222;49.324;8.420;2022-09-09T09:23:23;27.80;86.90
10352;DHT22;5222;49.324;8.420;2022-09-09T09:25:56;27.70;86.80
10352;DHT22;5222;49.324;8.420;2022-09-09T09:28:26;27.40;87.40
10352;DHT22;5222;49.324;8.420;2022-09-09T09:30:57;27.10;88.00
10352;DHT22;5222;49.324;8.420;2022-09-09T09:33:30;26.80;88.70
10352;DHT22;5222;49.324;8.420;2022-09-09T09:36:00;26.80;88.70
10352;DHT22;5222;49.324;8.420;2022-09-09T09:38:29;27.20;88.20
10352;DHT22;5222;49.324;8.420;2022-09-09T09:40:58;27.30;87.70
10352;DHT22;5222;49.324;8.420;2022-09-09T09:43:27;26.70;89.10
10352;DHT22;5222;49.324;8.420;2022-09-09T09:45:59;26.20;92.50
10352;DHT22;5222;49.324;8.420;2022-09-09T09:48:26;25.80;94.50
10352;DHT22;5222;49.324;8.420;2022-09-09T09:50:56;25.60;95.00
10352;DHT22;5222;49.324;8.420;2022-09-09T09:53:26;25.70;96.60
10352;DHT22;5222;49.324;8.420;2022-09-09T09:55:56;25.40;96.30
10352;DHT22;5222;49.324;8.420;2022-09-09T09:58:23;25.20;98.00
10352;DHT22;5222;49.324;8.420;2022-09-09T10:00:52;25.50;97.60
10352;DHT22;5222;49.324;8.420;2022-09-09T10:03:26;25.90;96.30
10352;DHT22;5222;49.324;8.420;2022-09-09T10:05:54;26.40;95.00
10352;DHT22;5222;49.324;8.420;2022-09-09T10:08:22;26.70;93.30
10352;DHT22;5222;49.324;8.420;2022-09-09T10:11:02;27.00;93.10
10352;DHT22;5222;49.324;8.420;2022-09-09T10:13:36;27.50;90.40
10352;DHT22;5222;49.324;8.420;2022-09-09T10:16:17;28.00;88.10
10352;DHT22;5222;49.324;8.420;2022-09-09T10:18:57;28.00;86.10
10352;DHT22;5222;49.324;8.420;2022-09-09T10:21:34;27.80;86.20
10352;DHT22;5222;49.324;8.420;2022-09-09T10:24:23;28.20;86.20
10352;DHT22;5222;49.324;8.420;2022-09-09T10:26:56;28.60;85.30
10352;DHT22;5222;49.324;8.420;2022-09-09T10:29:44;28.60;84.10
10352;DHT22;5222;49.324;8.420;2022-09-09T10:32:33;28.70;83.90
10352;DHT22;5222;49.324;8.420;2022-09-09T10:35:10;28.60;84.00
10352;DHT22;5222;49.324;8.420;2022-09-09T10:37:44;28.40;84.20
10352;DHT22;5222;49.324;8.420;2022-09-09T10:40:22;28.30;85.10
10352;DHT22;5222;49.324;8.420;2022-09-09T10:42:53;28.70;84.40
10352;DHT22;5222;49.324;8.420;2022-09-09T10:45:28;29.10;83.90
10352;DHT22;5222;49.324;8.420;2022-09-09T10:48:13;29.30;83.20
10352;DHT22;5222;49.324;8.420;2022-09-09T10:50:52;29.40;82.20
10352;DHT22;5222;49.324;8.420;2022-09-09T10:53:28;29.40;81.40
10352;DHT22;5222;49.324;8.420;2022-09-09T10:56:02;29.10;82.30
10352;DHT22;5222;49.324;8.420;2022-09-09T10:58:37;29.10;82.30
10352;DHT22;5222;49.324;8.420;2022-09-09T11:01:12;29.20;82.10
10352;DHT22;5222;49.324;8.420;2022-09-09T11:03:42;28.90;82.10
10352;DHT22;5222;49.324;8.420;2022-09-09T11:06:14;28.90;82.10
10352;DHT22;5222;49.324;8.420;2022-09-09T11:08:43;29.30;81.80
10352;DHT22;5222;49.324;8.420;2022-09-09T11:11:15;29.60;81.10
10352;DHT22;5222;49.324;8.420;2022-09-09T11:13:46;29.20;81.10
10352;DHT22;5222;49.324;8.420;2022-09-09T11:16:25;28.60;82.50
10352;DHT22;5222;49.324;8.420;2022-09-09T11:18:58;28.30;83.20
10352;DHT22;5222;49.324;8.420;2022-09-09T11:21:31;28.10;84.30
10352;DHT22;5222;49.324;8.420;2022-09-09T11:24:02;28.40;84.30
10352;DHT22;5222;49.324;8.420;2022-09-09T11:26:33;28.20;85.80
10352;DHT22;5222;49.324;8.420;2022-09-09T11:29:27;28.80;85.10
10352;DHT22;5222;49.324;8.420;2022-09-09T11:32:12;29.70;82.60
10352;DHT22;5222;49.324;8.420;2022-09-09T11:34:51;30.30;79.80
10352;DHT22;5222;49.324;8.420;2022-09-09T11:37:51;30.30;79.30
10352;DHT22;5222;49.324;8.420;2022-09-09T11:40:23;29.90;79.90
10352;DHT22;5222;49.324;8.420;2022-09-09T11:43:02;29.40;80.20
10352;DHT22;5222;49.324;8.420;2022-09-09T11:45:30;29.20;80.70
10352;DHT22;5222;49.324;8.420;2022-09-09T11:47:59;29.50;80.30
10352;DHT22;5222;49.324;8.420;2022-09-09T11:50:35;30.10;79.00
10352;DHT22;5222;49.324;8.420;2022-09-09T11:53:19;30.40;78.20
10352;DHT22;5222;49.324;8.420;2022-09-09T11:56:04;30.60;77.50
10352;DHT22;5222;49.324;8.420;2022-09-09T11:58:39;30.30;77.80
10352;DHT22;5222;49.324;8.420;2022-09-09T12:01:29;29.90;78.60
10352;DHT22;5222;49.324;8.420;2022-09-09T12:04:16;30.10;78.80
10352;DHT22;5222;49.324;8.420;2022-09-09T12:06:45;29.50;79.00
10352;DHT22;5222;49.324;8.420;2022-09-09T12:09:23;29.10;80.30
10352;DHT22;5222;49.324;8.420;2022-09-09T12:11:51;28.80;80.50
10352;DHT22;5222;49.324;8.420;2022-09-09T12:14:34;28.80;81.50
10352;DHT22;5222;49.324;8.420;2022-09-09T12:17:10;29.30;80.50
10352;DHT22;5222;49.324;8.420;2022-09-09T12:19:36;29.40;80.20
10352;DHT22;5222;49.324;8.420;2022-09-09T12:22:07;29.50;78.50
10352;DHT22;5222;49.324;8.420;2022-09-09T12:24:43;29.30;79.00
10352;DHT22;5222;49.324;8.420;2022-09-09T12:27:18;29.00;80.30
10352;DHT22;5222;49.324;8.420;2022-09-09T12:29:52;29.30;80.50
10352;DHT22;5222;49.324;8.420;2022-09-09T12:32:24;29.90;79.80
10352;DHT22;5222;49.324;8.420;2022-09-09T12:34:53;30.10;79.20
10352;DHT22;5222;49.324;8.420;2022-09-09T12:37:33;30.10;79.40
10352;DHT22;5222;49.324;8.420;2022-09-09T12:40:04;30.20;78.70
10352;DHT22;5222;49.324;8.420;2022-09-09T12:42:31;30.20;77.70
10352;DHT22;5222;49.324;8.420;2022-09-09T12:45:00;30.20;78.10
10352;DHT22;5222;49.324;8.420;2022-09-09T12:47:37;30.10;78.70
10352;DHT22;5222;49.324;8.420;2022-09-09T12:50:15;29.60;79.10
10352;DHT22;5222;49.324;8.420;2022-09-09T12:52:43;29.00;79.90
10352;DHT22;5222;49.324;8.420;2022-09-09T12:55:18;28.60;80.60
10352;DHT22;5222;49.324;8.420;2022-09-09T12:57:48;28.50;81.20
10352;DHT22;5222;49.324;8.420;2022-09-09T13:00:18;28.30;82.70
10352;DHT22;5222;49.324;8.420;2022-09-09T13:02:48;28.10;83.00
10352;DHT22;5222;49.324;8.420;2022-09-09T13:05:19;27.70;84.00
10352;DHT22;5222;49.324;8.420;2022-09-09T13:07:47;27.30;87.60
10352;DHT22;5222;49.324;8.420;2022-09-09T13:10:22;26.90;89.50
10352;DHT22;5222;49.324;8.420;2022-09-09T13:12:50;26.50;90.90
10352;DHT22;5222;49.324;8.420;2022-09-09T13:15:21;25.70;92.80
10352;DHT22;5222;49.324;8.420;2022-09-09T13:17:53;25.40;93.90
10352;DHT22;5222;49.324;8.420;2022-09-09T13:20:21;25.10;94.60
10352;DHT22;5222;49.324;8.420;2022-09-09T13:22:49;24.60;94.70
10352;DHT22;5222;49.324;8.420;2022-09-09T13:25:21;24.30;96.30
10352;DHT22;5222;49.324;8.420;2022-09-09T13:27:58;24.30;96.40
10352;DHT22;5222;49.324;8.420;2022-09-09T13:30:28;24.30;97.50
10352;DHT22;5222;49.324;8.420;2022-09-09T13:35:52;24.60;96.50
10352;DHT22;5222;49.324;8.420;2022-09-09T13:38:20;24.60;96.10
10352;DHT22;5222;49.324;8.420;2022-09-09T13:40:59;24.70;96.30
10352;DHT22;5222;49.324;8.420;2022-09-09T13:43:31;25.10;95.00
10352;DHT22;5222;49.324;8.420;2022-09-09T13:46:02;25.70;94.00
10352;DHT22;5222;49.324;8.420;2022-09-09T13:48:29;26.40;92.20
10352;DHT22;5222;49.324;8.420;2022-09-09T13:50:59;26.90;90.90
10352;DHT22;5222;49.324;8.420;2022-09-09T13:53:26;27.30;88.20
10352;DHT22;5222;49.324;8.420;2022-09-09T13:55:54;27.40;88.20
10352;DHT22;5222;49.324;8.420;2022-09-09T13:58:23;27.90;87.70
10352;DHT22;5222;49.324;8.420;2022-09-09T14:00:50;27.90;86.00
10352;DHT22;5222;49.324;8.420;2022-09-09T14:03:18;28.10;85.80
10352;DHT22;5222;49.324;8.420;2022-09-09T14:05:45;28.20;85.20
10352;DHT22;5222;49.324;8.420;2022-09-09T14:08:20;28.50;84.90
10352;DHT22;5222;49.324;8.420;2022-09-09T14:10:48;28.60;84.00
10352;DHT22;5222;49.324;8.420;2022-09-09T14:13:15;28.40;83.00
10352;DHT22;5222;49.324;8.420;2022-09-09T14:15:43;28.10;83.60
10352;DHT22;5222;49.324;8.420;2022-09-09T14:18:13;28.40;83.90
10352;DHT22;5222;49.324;8.420;2022-09-09T14:20:40;28.60;83.60
10352;DHT22;5222;49.324;8.420;2022-09-09T14:23:10;28.60;83.30
10352;DHT22;5222;49.324;8.420;2022-09-09T14:25:40;28.60;83.30
10352;DHT22;5222;49.324;8.420;2022-09-09T14:28:09;28.60;83.40
10352;DHT22;5222;49.324;8.420;2022-09-09T14:30:37;28.20;83.50
10352;DHT22;5222;49.324;8.420;2022-09-09T14:33:05;28.20;83.40
10352;DHT22;5222;49.324;8.420;2022-09-09T14:35:32;27.80;84.30
10352;DHT22;5222;49.324;8.420;2022-09-09T14:37:59;27.50;84.90
10352;DHT22;5222;49.324;8.420;2022-09-09T14:40:27;27.30;85.40
10352;DHT22;5222;49.324;8.420;2022-09-09T14:42:54;27.10;86.00
10352;DHT22;5222;49.324;8.420;2022-09-09T14:45:22;27.00;85.70
10352;DHT22;5222;49.324;8.420;2022-09-09T14:47:50;26.90;85.70
10352;DHT22;5222;49.324;8.420;2022-09-09T14:50:19;26.70;86.20
10352;DHT22;5222;49.324;8.420;2022-09-09T14:52:46;26.30;87.30
10352;DHT22;5222;49.324;8.420;2022-09-09T14:55:13;26.40;87.60
10352;DHT22;5222;49.324;8.420;2022-09-09T14:57:40;26.00;88.40
10352;DHT22;5222;49.324;8.420;2022-09-09T15:00:09;25.50;88.80
10352;DHT22;5222;49.324;8.420;2022-09-09T15:02:36;25.60;89.80
10352;DHT22;5222;49.324;8.420;2022-09-09T15:05:04;25.50;89.70
10352;DHT22;5222;49.324;8.420;2022-09-09T15:07:32;25.50;89.20
10352;DHT22;5222;49.324;8.420;2022-09-09T15:09:59;25.10;89.60
10352;DHT22;5222;49.324;8.420;2022-09-09T15:12:26;24.90;90.30
10352;DHT22;5222;49.324;8.420;2022-09-09T15:14:53;24.40;91.30
10352;DHT22;5222;49.324;8.420;2022-09-09T15:17:21;24.20;92.80
10352;DHT22;5222;49.324;8.420;2022-09-09T15:19:48;23.70;96.00
10352;DHT22;5222;49.324;8.420;2022-09-09T15:22:15;23.40;97.40
10352;DHT22;5222;49.324;8.420;2022-09-09T15:24:45;22.90;99.10
10352;DHT22;5222;49.324;8.420;2022-09-09T15:27:12;22.70;99.10
10352;DHT22;5222;49.324;8.420;2022-09-09T15:29:39;22.70;99.10
10352;DHT22;5222;49.324;8.420;2022-09-09T15:32:07;22.80;99.10
10352;DHT22;5222;49.324;8.420;2022-09-09T15:34:34;23.00;99.10
10352;DHT22;5222;49.324;8.420;2022-09-09T15:37:02;23.20;99.10
10352;DHT22;5222;49.324;8.420;2022-09-09T15:39:28;23.60;98.00
10352;DHT22;5222;49.324;8.420;2022-09-09T15:41:57;24.00;96.80
10352;DHT22;5222;49.324;8.420;2022-09-09T15:44:23;24.30;95.90
10352;DHT22;5222;49.324;8.420;2022-09-09T15:46:52;24.60;93.80
10352;DHT22;5222;49.324;8.420;2022-09-09T15:49:21;24.80;90.40
10352;DHT22;5222;49.324;8.420;2022-09-09T15:51:52;25.00;91.00
10352;DHT22;5222;49.324;8.420;2022-09-09T15:54:20;25.30;90.20
10352;DHT22;5222;49.324;8.420;2022-09-09T15:56:51;25.50;89.70
10352;DHT22;5222;49.324;8.420;2022-09-09T15:59:21;25.70;90.30
10352;DHT22;5222;49.324;8.420;2022-09-09T16:01:48;25.80;89.90
10352;DHT22;5222;49.324;8.420;2022-09-09T16:04:16;25.70;89.60
10352;DHT22;5222;49.324;8.420;2022-09-09T16:06:49;25.50;89.60
10352;DHT22;5222;49.324;8.420;2022-09-09T16:09:16;25.30;90.90